Terminal Aerodrome Forecast
Issued by NWS Twin Cities, MN

Home | Current Version | Previous Version | Graphics & Text | Print | Product List | Glossary On
Versions: 1 2 3 4 5 6 7 8 9 10 11 12 13 14 15
000
FTUS43 KMPX 161722
TAFSTC
TAF
KSTC 161722Z 1618/1718 23008KT P6SM BKN070
     FM162300 28007KT P6SM SCT050 BKN150
     FM170400 34005KT P6SM FEW100
     FM171200 02004KT P6SM SCT250=

USA.gov is the U.S. government's official web portal to all federal, state and local government web resources and services.